createdAt,value
2022-11-09T00:01:30.988Z,42.90
2022-11-09T00:04:04.212Z,43.40
2022-11-09T00:06:34.620Z,41.30
2022-11-09T00:09:08.085Z,42.40
2022-11-09T00:11:38.178Z,42.20
2022-11-09T00:14:07.127Z,41.70
2022-11-09T00:16:36.579Z,46.40
2022-11-09T00:19:05.686Z,39.60
2022-11-09T00:21:37.820Z,40.60
2022-11-09T00:24:07.031Z,42.30
2022-11-09T00:26:35.922Z,41.20
2022-11-09T00:29:05.001Z,41.10
2022-11-09T00:31:35.489Z,42.90
2022-11-09T00:34:04.503Z,44.60
2022-11-09T00:36:33.428Z,46.30
2022-11-09T00:39:02.323Z,39.70
2022-11-09T00:41:31.456Z,41.60
2022-11-09T00:44:00.392Z,45.50
2022-11-09T00:46:29.584Z,45.70
2022-11-09T00:48:58.916Z,40.20
2022-11-09T00:51:27.962Z,47.90
2022-11-09T00:53:58.568Z,41.90
2022-11-09T00:56:27.625Z,43.40
2022-11-09T00:58:56.691Z,50.30
2022-11-09T01:01:25.814Z,42.80
2022-11-09T01:03:54.912Z,46.40
2022-11-09T01:06:26.656Z,42.90
2022-11-09T01:08:55.628Z,41.70
2022-11-09T01:11:24.762Z,44.00
2022-11-09T01:16:30.676Z,43.00
2022-11-09T01:19:00.682Z,43.90
2022-11-09T01:21:29.686Z,42.50
2022-11-09T01:24:02.110Z,42.70
2022-11-09T01:26:31.191Z,42.20
2022-11-09T01:29:00.186Z,44.40
2022-11-09T01:31:29.126Z,41.30
2022-11-09T01:33:58.031Z,43.80
2022-11-09T01:36:27.078Z,41.40
2022-11-09T01:38:56.081Z,43.60
2022-11-09T01:41:28.727Z,40.40
2022-11-09T01:44:12.927Z,41.40
2022-11-09T01:46:57.475Z,39.40
2022-11-09T01:49:31.926Z,40.20
2022-11-09T01:52:18.095Z,40.80
2022-11-09T01:54:57.436Z,40.60
2022-11-09T01:57:36.711Z,40.60
2022-11-09T02:00:14.319Z,42.30
2022-11-09T02:02:51.607Z,38.70
2022-11-09T02:05:26.992Z,40.90
2022-11-09T02:07:58.545Z,41.80
2022-11-09T02:10:42.466Z,43.80
2022-11-09T02:13:13.831Z,41.30
2022-11-09T02:15:45.617Z,43.10
2022-11-09T02:18:15.331Z,45.00
2022-11-09T02:20:50.783Z,46.70
2022-11-09T02:23:21.404Z,46.60
2022-11-09T02:26:00.781Z,43.80
2022-11-09T02:28:31.147Z,43.20
2022-11-09T02:31:02.286Z,43.80
2022-11-09T02:34:12.263Z,42.30
2022-11-09T02:36:43.578Z,38.50
2022-11-09T02:39:20.812Z,38.80
2022-11-09T02:42:03.198Z,38.20
2022-11-09T02:44:41.043Z,38.80
2022-11-09T02:47:10.335Z,38.30
2022-11-09T02:49:39.356Z,40.80
2022-11-09T02:52:10.083Z,38.50
2022-11-09T02:54:40.381Z,40.20
2022-11-09T02:57:09.396Z,38.90
2022-11-09T02:59:39.268Z,38.80
2022-11-09T03:02:08.587Z,38.90
2022-11-09T03:04:37.683Z,39.30
2022-11-09T03:07:08.324Z,41.60
2022-11-09T03:09:38.396Z,41.00
2022-11-09T03:12:26.304Z,39.60
2022-11-09T03:15:01.521Z,38.10
2022-11-09T03:17:32.655Z,40.60
2022-11-09T03:20:02.075Z,40.20
2022-11-09T03:22:31.264Z,42.10
2022-11-09T03:25:00.409Z,42.30
2022-11-09T03:27:29.738Z,41.10
2022-11-09T03:29:58.761Z,39.80
2022-11-09T03:32:27.831Z,42.60
2022-11-09T03:34:57.011Z,40.40
2022-11-09T03:37:25.990Z,41.80
2022-11-09T03:39:55.120Z,41.90
2022-11-09T03:42:24.090Z,42.50
2022-11-09T03:44:53.102Z,42.50
2022-11-09T03:47:22.040Z,42.00
2022-11-09T03:49:50.986Z,43.10
2022-11-09T03:52:20.077Z,47.30
2022-11-09T03:54:49.009Z,47.10
2022-11-09T03:57:20.673Z,43.00
2022-11-09T03:59:50.131Z,41.50
2022-11-09T04:02:19.076Z,40.30
2022-11-09T04:04:47.923Z,41.30
2022-11-09T04:07:17.379Z,44.80
2022-11-09T04:09:46.431Z,44.40
2022-11-09T04:12:17.351Z,43.30
2022-11-09T04:14:46.196Z,41.00
2022-11-09T04:17:15.334Z,43.30
2022-11-09T04:19:44.283Z,43.50
2022-11-09T04:22:13.400Z,42.00
2022-11-09T04:24:42.905Z,43.40
2022-11-09T04:27:11.828Z,42.00
2022-11-09T04:29:43.516Z,42.20
2022-11-09T04:32:12.455Z,43.20
2022-11-09T04:34:41.590Z,43.50
2022-11-09T04:37:10.594Z,42.70
2022-11-09T04:39:39.696Z,46.70
2022-11-09T04:42:08.721Z,46.90
2022-11-09T04:44:37.636Z,43.10
2022-11-09T04:47:06.507Z,44.50
2022-11-09T04:49:35.403Z,44.10
2022-11-09T04:52:04.425Z,43.90
2022-11-09T04:54:34.111Z,47.10
2022-11-09T04:57:03.082Z,46.20
2022-11-09T04:59:32.109Z,46.10
2022-11-09T05:02:01.123Z,47.10
2022-11-09T05:04:30.084Z,47.40
2022-11-09T05:06:59.032Z,48.60
2022-11-09T05:09:27.975Z,49.30
2022-11-09T05:11:57.018Z,45.00
2022-11-09T05:14:25.944Z,45.40
2022-11-09T05:16:56.013Z,48.30
2022-11-09T05:19:25.035Z,48.70
2022-11-09T05:21:54.134Z,49.40
2022-11-09T05:24:23.041Z,49.30
2022-11-09T05:26:53.738Z,52.90
2022-11-09T05:29:22.731Z,49.80
2022-11-09T05:31:52.568Z,49.50
2022-11-09T05:34:21.645Z,47.10
2022-11-09T05:36:50.601Z,51.10
2022-11-09T05:39:19.642Z,52.70
2022-11-09T05:41:48.603Z,52.10
2022-11-09T05:44:17.503Z,48.90
2022-11-09T05:46:46.402Z,52.30
2022-11-09T05:49:15.445Z,51.10
2022-11-09T05:51:44.460Z,51.30
2022-11-09T05:54:13.381Z,53.10
2022-11-09T05:56:42.405Z,52.30
2022-11-09T05:59:11.464Z,53.20
2022-11-09T06:01:40.686Z,49.30
2022-11-09T06:04:09.961Z,48.90
2022-11-09T06:06:38.946Z,51.50
2022-11-09T06:09:10.549Z,119.00
2022-11-09T06:11:41.248Z,90.70
2022-11-09T06:14:10.326Z,59.20
2022-11-09T06:16:39.195Z,54.00
2022-11-09T06:19:08.203Z,49.90
2022-11-09T06:21:37.233Z,47.20
2022-11-09T06:24:06.669Z,47.60
2022-11-09T06:26:35.943Z,45.50
2022-11-09T06:29:05.903Z,48.80
2022-11-09T06:31:34.946Z,51.20
2022-11-09T06:34:04.281Z,48.20
2022-11-09T06:36:33.277Z,48.30
2022-11-09T06:39:02.216Z,45.70
2022-11-09T06:41:31.185Z,48.40
2022-11-09T06:44:00.179Z,51.30
2022-11-09T06:46:31.847Z,51.00
2022-11-09T06:49:01.235Z,49.10
2022-11-09T06:51:30.219Z,52.60
2022-11-09T06:53:59.202Z,54.20
2022-11-09T06:56:28.156Z,54.60
2022-11-09T06:58:57.123Z,55.40
2022-11-09T07:01:29.486Z,62.10
2022-11-09T07:03:58.456Z,55.90
2022-11-09T07:06:27.458Z,55.70
2022-11-09T07:08:56.842Z,52.50
2022-11-09T07:11:25.763Z,50.90
2022-11-09T07:13:57.381Z,50.70
2022-11-09T07:16:27.016Z,50.90
2022-11-09T07:18:55.955Z,48.10
2022-11-09T07:21:25.348Z,53.40
2022-11-09T07:23:54.379Z,67.70
2022-11-09T07:26:23.324Z,59.40
2022-11-09T07:28:52.327Z,58.20
2022-11-09T07:31:21.449Z,53.10
2022-11-09T07:33:50.902Z,57.30
2022-11-09T07:36:21.711Z,52.20
2022-11-09T07:38:51.032Z,56.70
2022-11-09T07:41:20.029Z,60.20
2022-11-09T07:43:48.974Z,65.90
2022-11-09T07:46:18.031Z,56.10
2022-11-09T07:48:47.014Z,50.60
2022-11-09T07:51:15.945Z,50.00
2022-11-09T07:53:44.981Z,51.50
2022-11-09T07:56:14.042Z,51.80
2022-11-09T07:58:43.037Z,49.90
2022-11-09T08:01:12.592Z,48.10
2022-11-09T08:03:41.959Z,48.30
2022-11-09T08:06:15.628Z,47.70
2022-11-09T08:08:48.048Z,46.10
2022-11-09T08:11:17.093Z,47.10
2022-11-09T08:13:46.219Z,49.00
2022-11-09T08:16:15.398Z,51.40
2022-11-09T08:18:45.088Z,48.60
2022-11-09T08:21:14.304Z,49.80
2022-11-09T08:23:43.329Z,48.00
2022-11-09T08:26:12.850Z,48.70
2022-11-09T08:28:42.087Z,47.00
2022-11-09T08:31:11.077Z,54.50
2022-11-09T08:33:42.438Z,53.40
2022-11-09T08:36:14.735Z,47.40
2022-11-09T08:38:45.596Z,47.90
2022-11-09T08:41:14.754Z,44.10
2022-11-09T08:43:43.720Z,44.80
2022-11-09T08:46:12.726Z,43.00
2022-11-09T08:48:41.708Z,40.80
2022-11-09T08:51:10.681Z,39.60
2022-11-09T08:53:39.591Z,39.50
2022-11-09T08:56:09.805Z,38.20
2022-11-09T08:58:39.566Z,38.80
2022-11-09T09:01:13.912Z,40.80
2022-11-09T09:03:46.935Z,39.00
2022-11-09T09:06:16.052Z,40.60
2022-11-09T09:08:44.999Z,39.50
2022-11-09T09:11:14.001Z,40.00
2022-11-09T09:13:43.713Z,39.10
2022-11-09T09:16:15.731Z,39.00
2022-11-09T09:18:47.622Z,38.60
2022-11-09T09:21:16.939Z,37.10
2022-11-09T09:23:50.896Z,37.10
2022-11-09T09:26:19.929Z,40.70
2022-11-09T09:28:48.902Z,39.20
2022-11-09T09:31:18.844Z,40.60
2022-11-09T09:33:48.249Z,35.90
2022-11-09T09:36:20.679Z,36.60
2022-11-09T09:38:54.725Z,35.40
2022-11-09T09:41:35.689Z,36.10
2022-11-09T09:44:24.209Z,38.10
2022-11-09T09:47:20.212Z,36.30
2022-11-09T09:50:10.384Z,30.70
2022-11-09T09:53:04.594Z,30.60
2022-11-09T09:55:43.108Z,30.50
2022-11-09T09:58:19.647Z,31.80
2022-11-09T10:00:56.058Z,30.70
2022-11-09T10:03:25.148Z,30.40
2022-11-09T10:06:38.133Z,30.30
2022-11-09T10:09:39.944Z,28.60
2022-11-09T10:12:29.760Z,28.50
2022-11-09T10:15:33.260Z,28.70
2022-11-09T10:18:37.479Z,31.00
2022-11-09T10:21:27.875Z,29.30
2022-11-09T10:24:27.278Z,32.00
2022-11-09T10:26:59.157Z,26.30
2022-11-09T10:29:49.077Z,29.00
2022-11-09T10:32:21.444Z,27.50
2022-11-09T10:35:12.050Z,30.70
2022-11-09T10:37:46.562Z,34.50
2022-11-09T10:40:32.122Z,30.20
2022-11-09T10:43:19.808Z,27.80
2022-11-09T10:46:09.074Z,31.10
2022-11-09T10:48:56.681Z,30.10
2022-11-09T10:51:48.416Z,33.80
2022-11-09T10:54:38.225Z,30.80
2022-11-09T10:57:26.040Z,31.40
2022-11-09T11:00:21.982Z,33.80
2022-11-09T11:03:18.480Z,36.60
2022-11-09T11:06:19.565Z,34.80
2022-11-09T11:09:06.997Z,35.30
2022-11-09T11:12:20.340Z,36.20
2022-11-09T11:15:30.026Z,43.70
2022-11-09T11:18:24.975Z,34.60
2022-11-09T11:21:25.521Z,30.20
2022-11-09T11:24:20.918Z,32.80
2022-11-09T11:27:39.620Z,33.60
2022-11-09T11:30:35.185Z,37.20
2022-11-09T11:33:22.987Z,38.50
2022-11-09T11:36:43.234Z,37.10
2022-11-09T11:39:52.638Z,36.10
2022-11-09T11:43:10.110Z,35.20
2022-11-09T11:46:38.807Z,36.90
2022-11-09T11:49:35.035Z,37.10
2022-11-09T11:52:38.048Z,33.70
2022-11-09T11:55:43.668Z,36.30
2022-11-09T11:58:33.537Z,33.00
2022-11-09T12:01:47.967Z,36.10
2022-11-09T12:05:19.066Z,36.30
2022-11-09T12:09:03.653Z,44.50
2022-11-09T12:12:25.699Z,48.90
2022-11-09T12:16:04.071Z,50.00
2022-11-09T12:19:22.574Z,43.50
2022-11-09T12:23:33.738Z,49.70
2022-11-09T12:27:04.714Z,42.30
2022-11-09T12:30:09.750Z,36.90
2022-11-09T12:33:07.957Z,40.50
2022-11-09T12:36:10.485Z,39.70
2022-11-09T12:39:16.219Z,48.20
2022-11-09T12:42:21.896Z,39.30
2022-11-09T12:45:25.070Z,37.50
2022-11-09T12:48:30.692Z,39.80
2022-11-09T12:51:19.820Z,41.30
2022-11-09T12:54:11.912Z,52.80
2022-11-09T12:57:10.398Z,51.20
2022-11-09T13:00:01.295Z,47.50
2022-11-09T13:02:57.106Z,54.60
2022-11-09T13:05:47.697Z,49.10
2022-11-09T13:08:36.032Z,50.50
2022-11-09T13:11:51.776Z,46.50
2022-11-09T13:14:39.600Z,45.40
2022-11-09T13:17:27.396Z,39.30
2022-11-09T13:24:04.466Z,41.10
2022-11-09T13:26:59.975Z,35.60
2022-11-09T13:29:56.327Z,35.40
2022-11-09T13:33:06.266Z,32.90
2022-11-09T13:36:09.775Z,34.40
2022-11-09T13:39:38.171Z,35.30
2022-11-09T13:42:36.808Z,34.50
2022-11-09T13:45:30.556Z,37.50
2022-11-09T13:48:48.585Z,36.80
2022-11-09T13:51:36.295Z,33.30
2022-11-09T13:54:44.537Z,38.30
2022-11-09T13:57:33.100Z,36.10
2022-11-09T14:00:26.280Z,38.20
2022-11-09T14:03:24.490Z,44.40
2022-11-09T14:06:15.656Z,41.20
2022-11-09T14:09:03.798Z,41.90
2022-11-09T14:12:24.026Z,43.50
2022-11-09T14:15:47.355Z,43.90
2022-11-09T14:18:48.449Z,43.40
2022-11-09T14:21:54.136Z,43.50
2022-11-09T14:24:46.501Z,46.00
2022-11-09T14:30:26.762Z,41.70
2022-11-09T14:33:36.940Z,39.80
2022-11-09T14:36:27.411Z,44.30
2022-11-09T14:39:34.125Z,42.00
2022-11-09T14:42:26.544Z,42.20
2022-11-09T14:45:18.868Z,44.40
2022-11-09T14:48:08.535Z,40.20
2022-11-09T14:51:07.184Z,40.20
2022-11-09T14:53:56.434Z,47.90
2022-11-09T14:56:45.736Z,43.50
2022-11-09T14:59:36.258Z,48.90
2022-11-09T15:02:30.060Z,47.90
2022-11-09T15:05:38.081Z,47.60
2022-11-09T15:08:29.064Z,48.00
2022-11-09T15:11:34.634Z,51.80
2022-11-09T15:14:33.953Z,45.60
2022-11-09T15:17:36.044Z,64.40
2022-11-09T15:20:34.535Z,70.60
2022-11-09T15:23:43.232Z,56.90
2022-11-09T15:26:42.092Z,56.00
2022-11-09T15:29:39.450Z,58.20
2022-11-09T15:32:40.625Z,57.20
2022-11-09T15:35:32.423Z,55.50
2022-11-09T15:38:44.960Z,56.90
2022-11-09T15:44:21.106Z,60.50
2022-11-09T15:47:27.901Z,56.40
2022-11-09T15:50:28.987Z,64.30
2022-11-09T15:53:16.985Z,63.50
2022-11-09T15:56:09.924Z,74.30
2022-11-09T15:58:57.852Z,81.10
2022-11-09T16:01:51.232Z,81.00
2022-11-09T16:04:39.818Z,82.00
2022-11-09T16:07:43.139Z,81.10
2022-11-09T16:10:31.186Z,81.60
2022-11-09T16:13:18.853Z,79.70
2022-11-09T16:16:09.449Z,89.60
2022-11-09T16:18:59.657Z,90.50
2022-11-09T16:21:47.752Z,90.60
2022-11-09T16:24:35.396Z,96.30
2022-11-09T16:27:48.566Z,105.10
2022-11-09T16:30:33.964Z,117.40
2022-11-09T16:33:22.727Z,118.50
2022-11-09T16:36:23.182Z,116.10
2022-11-09T16:39:18.340Z,122.50
2022-11-09T16:42:13.251Z,119.50
2022-11-09T16:45:12.594Z,114.90
2022-11-09T16:48:03.931Z,116.10
2022-11-09T16:50:53.798Z,103.30
2022-11-09T16:53:42.254Z,88.30
2022-11-09T16:56:34.733Z,85.00
2022-11-09T16:59:23.571Z,92.60
2022-11-09T17:02:11.014Z,87.00
2022-11-09T17:05:06.842Z,88.00
2022-11-09T17:07:54.397Z,86.30
2022-11-09T17:10:47.193Z,99.90
2022-11-09T17:13:37.177Z,99.30
2022-11-09T17:16:25.623Z,96.30
2022-11-09T17:19:14.771Z,99.30
2022-11-09T17:22:05.080Z,113.00
2022-11-09T17:24:53.091Z,106.10
2022-11-09T17:27:44.572Z,95.90
2022-11-09T17:30:34.073Z,105.90
2022-11-09T17:33:25.868Z,101.80
2022-11-09T17:36:41.563Z,91.00
2022-11-09T17:39:31.459Z,91.40
2022-11-09T17:42:19.126Z,86.60
2022-11-09T17:45:10.482Z,85.00
2022-11-09T17:47:59.538Z,96.10
2022-11-09T17:50:47.557Z,95.50
2022-11-09T17:53:36.493Z,93.30
2022-11-09T17:56:25.844Z,93.30
2022-11-09T17:59:13.912Z,98.50
2022-11-09T18:02:01.979Z,103.20
2022-11-09T18:04:49.623Z,106.70
2022-11-09T18:07:37.576Z,115.70
2022-11-09T18:10:25.184Z,111.00
2022-11-09T18:13:15.536Z,111.70
2022-11-09T18:16:18.843Z,115.60
2022-11-09T18:19:06.904Z,111.50
2022-11-09T18:21:56.375Z,112.90
2022-11-09T18:24:44.903Z,108.60
2022-11-09T18:27:33.336Z,104.10
2022-11-09T18:30:23.775Z,113.60
2022-11-09T18:33:13.859Z,109.40
2022-11-09T18:36:20.321Z,105.40
2022-11-09T18:42:03.470Z,120.20
2022-11-09T18:44:55.292Z,140.60
2022-11-09T18:47:43.463Z,114.70
2022-11-09T18:50:35.504Z,116.40
2022-11-09T18:53:29.649Z,116.40
2022-11-09T18:56:26.284Z,118.10
2022-11-09T18:59:18.755Z,131.50
2022-11-09T19:02:37.047Z,121.50
2022-11-09T19:05:27.796Z,127.20
2022-11-09T19:11:35.481Z,119.20
2022-11-09T19:14:28.905Z,146.70
2022-11-09T19:17:23.453Z,116.30
2022-11-09T19:20:18.558Z,117.90
2022-11-09T19:23:15.791Z,112.30
2022-11-09T19:26:32.440Z,117.30
2022-11-09T19:29:22.843Z,119.20
2022-11-09T19:32:17.117Z,111.60
2022-11-09T19:35:08.157Z,102.60
2022-11-09T19:46:48.955Z,108.00
2022-11-09T19:49:39.214Z,103.50
2022-11-09T19:52:30.879Z,104.50
2022-11-09T19:55:32.915Z,107.20
2022-11-09T19:58:30.100Z,101.80
2022-11-09T20:01:36.273Z,100.60
2022-11-09T20:04:40.838Z,99.90
2022-11-09T20:07:40.351Z,100.30
2022-11-09T20:10:32.683Z,101.60
2022-11-09T20:14:03.609Z,100.30
2022-11-09T20:17:15.542Z,104.10
2022-11-09T20:20:10.246Z,108.00
2022-11-09T20:23:11.496Z,110.40
2022-11-09T20:26:13.131Z,108.40
2022-11-09T20:29:10.291Z,112.90
2022-11-09T20:32:03.378Z,104.60
2022-11-09T20:35:10.190Z,100.90
2022-11-09T20:38:02.426Z,114.70
2022-11-09T20:41:01.310Z,121.50
2022-11-09T20:43:49.276Z,113.20
2022-11-09T20:46:48.444Z,132.20
2022-11-09T20:49:39.200Z,150.50
2022-11-09T20:52:34.066Z,129.00
2022-11-09T20:55:23.470Z,127.00
2022-11-09T20:58:27.482Z,132.20
2022-11-09T21:01:22.772Z,127.70
2022-11-09T21:04:14.987Z,117.80
2022-11-09T21:08:40.578Z,110.80
2022-11-09T21:10:17.290Z,112.30
2022-11-09T21:16:27.263Z,109.20
2022-11-09T21:22:55.503Z,107.60
2022-11-09T21:26:07.411Z,103.00
2022-11-09T21:29:30.883Z,100.40
2022-11-09T21:35:30.397Z,96.40
2022-11-09T21:38:33.565Z,105.00
2022-11-09T21:41:39.795Z,103.60
2022-11-09T21:44:31.740Z,106.20
2022-11-09T21:47:19.765Z,113.90
2022-11-09T21:50:12.503Z,104.00
2022-11-09T21:53:05.535Z,104.60
2022-11-09T21:55:58.204Z,99.70
2022-11-09T21:58:48.677Z,103.60
2022-11-09T22:01:36.663Z,101.30
2022-11-09T22:04:24.540Z,99.50
2022-11-09T22:07:12.514Z,98.60
2022-11-09T22:10:16.189Z,90.60
2022-11-09T22:13:23.988Z,93.30
2022-11-09T22:16:12.353Z,89.40
2022-11-09T22:19:22.028Z,84.50
2022-11-09T22:22:12.065Z,90.40
2022-11-09T22:24:59.762Z,93.80
2022-11-09T22:27:47.786Z,85.40
2022-11-09T22:30:37.883Z,80.50
2022-11-09T22:33:27.450Z,80.70
2022-11-09T22:36:17.129Z,83.30
2022-11-09T22:39:07.286Z,82.00
2022-11-09T22:41:54.945Z,80.20
2022-11-09T22:44:42.832Z,77.30
2022-11-09T22:47:33.433Z,74.00
2022-11-09T22:50:21.777Z,73.70
2022-11-09T22:53:09.748Z,69.80
2022-11-09T22:56:01.184Z,68.00
2022-11-09T22:58:53.987Z,67.10
2022-11-09T23:01:42.333Z,66.60
2022-11-09T23:04:30.252Z,70.70
2022-11-09T23:07:23.515Z,118.20
2022-11-09T23:10:14.011Z,80.00
2022-11-09T23:13:29.746Z,68.60
2022-11-09T23:16:17.357Z,68.60
2022-11-09T23:19:10.106Z,75.50
2022-11-09T23:22:02.699Z,66.20
2022-11-09T23:25:09.194Z,65.80
2022-11-09T23:27:59.217Z,69.50
2022-11-09T23:30:47.175Z,60.30
2022-11-09T23:33:37.042Z,67.50
2022-11-09T23:36:29.214Z,64.90
2022-11-09T23:39:17.967Z,64.90
2022-11-09T23:42:05.898Z,70.10
2022-11-09T23:44:55.530Z,71.80
2022-11-09T23:47:46.684Z,74.30
2022-11-09T23:50:57.079Z,67.90
2022-11-09T23:53:59.590Z,71.60
2022-11-09T23:57:08.214Z,69.20
2022-11-09T23:59:56.862Z,74.30
